Time;durP1;ratioP1;P1;durP2;ratioP2;P2;SDS_P1;SDS_P2;PMS_P1;PMS_P2;Temp;Humidity;BMP_temperature;BMP_pressure;BME280_temperature;BME280_humidity;BME280_pressure;Samples;Min_cycle;Max_cycle;Signal;HPM_P1;HPM_P2
2022/08/18 00:00:56;;;;;;;13.80;12.00;;;;;;;21.49;100.00;99519.83;1716982;83;21477;-55
2022/08/18 00:03:23;;;;;;;15.20;12.87;;;;;;;21.51;100.00;99517.67;1716248;83;21043;-54
2022/08/18 00:05:51;;;;;;;17.13;13.87;;;;;;;21.51;100.00;99517.67;1688245;83;20931;-57
2022/08/18 00:08:18;;;;;;;15.23;13.73;;;;;;;21.48;100.00;99524.88;1716324;83;21708;-57
2022/08/18 00:10:46;;;;;;;16.07;13.53;;;;;;;21.46;100.00;99529.64;1716596;83;21120;-55
2022/08/18 00:13:14;;;;;;;19.10;14.47;;;;;;;21.46;100.00;99525.66;1717057;83;20966;-56
2022/08/18 00:15:42;;;;;;;15.90;14.03;;;;;;;21.40;100.00;99527.28;1715944;83;20899;-56
2022/08/18 00:18:10;;;;;;;16.33;14.50;;;;;;;21.40;100.00;99527.28;1716714;83;21017;-65
2022/08/18 00:20:38;;;;;;;18.63;14.40;;;;;;;21.37;100.00;99531.28;1716607;83;21253;-54
2022/08/18 00:23:05;;;;;;;15.47;13.67;;;;;;;21.32;100.00;99533.38;1688417;83;21060;-55
2022/08/18 00:25:33;;;;;;;15.23;12.67;;;;;;;21.31;100.00;99529.68;1716304;83;21046;-56
2022/08/18 00:28:00;;;;;;;15.33;13.57;;;;;;;21.22;100.00;99527.34;1716370;83;21001;-64
2022/08/18 00:30:27;;;;;;;19.70;13.67;;;;;;;21.30;100.00;99536.84;1716455;83;20951;-55
2022/08/18 00:32:56;;;;;;;17.47;14.17;;;;;;;21.11;100.00;99533.99;1717004;83;21537;-54
2022/08/18 00:35:35;;;;;;;16.33;13.80;;;;;;;21.06;100.00;99534.02;1716223;83;21042;-56
2022/08/18 00:38:04;;;;;;;16.77;13.33;;;;;;;20.97;100.00;99535.62;1715881;83;21017;-56
2022/08/18 00:40:44;;;;;;;15.77;12.87;;;;;;;20.92;100.00;99532.20;1717104;83;21103;-55
2022/08/18 00:43:18;;;;;;;14.63;13.13;;;;;;;20.98;100.00;99539.05;1717053;83;21073;-55
2022/08/18 00:45:45;;;;;;;14.50;13.10;;;;;;;20.95;100.00;99536.94;1715509;83;21113;-57
2022/08/18 00:48:13;;;;;;;15.77;13.60;;;;;;;20.91;100.00;99538.03;1716470;83;20950;-56
2022/08/18 00:50:56;;;;;;;15.23;13.23;;;;;;;20.86;100.00;99535.37;1716444;83;20981;-58
2022/08/18 00:53:46;;;;;;;14.43;12.70;;;;;;;20.82;100.00;99535.12;1716959;83;21014;-57
2022/08/18 00:56:21;;;;;;;18.50;13.53;;;;;;;20.83;100.00;99537.23;1678972;83;21042;-58
2022/08/18 00:58:54;;;;;;;15.33;13.27;;;;;;;20.87;100.00;99531.66;1716382;83;21725;-56
2022/08/18 01:01:22;;;;;;;20.20;13.53;;;;;;;20.86;100.00;99543.33;1716124;83;21047;-58
2022/08/18 01:03:52;;;;;;;15.57;13.93;;;;;;;20.90;100.00;99534.56;1717049;83;21452;-58
2022/08/18 01:06:42;;;;;;;16.83;14.63;;;;;;;20.88;100.00;99538.56;1717065;83;21386;-56
2022/08/18 01:09:09;;;;;;;17.47;13.80;;;;;;;20.85;100.00;99536.45;1716492;83;20935;-56
2022/08/18 01:11:37;;;;;;;15.87;13.70;;;;;;;20.84;100.00;99534.33;1716718;83;21834;-64
2022/08/18 01:14:06;;;;;;;17.80;15.30;;;;;;;20.86;100.00;99527.42;1716946;83;21569;-56
2022/08/18 01:22:00;;;;;;;19.87;13.77;;;;;;;20.94;100.00;99522.90;1710006;83;21097;-56
2022/08/18 01:27:17;;;;;;;17.00;14.00;;;;;;;20.99;100.00;99526.88;1716586;83;20888;-56
2022/08/18 01:29:48;;;;;;;17.20;14.43;;;;;;;20.95;100.00;99517.89;1716979;83;20983;-57
2022/08/18 01:32:20;;;;;;;;;;;;;;;20.93;100.00;99516.02;1718899;83;21034;-58
2022/08/18 01:34:49;;;;;;;15.60;13.63;;;;;;;20.91;100.00;99519.48;1716848;83;20538;-59
2022/08/18 01:37:22;;;;;;;18.93;15.07;;;;;;;20.86;100.00;99516.83;1716774;83;21918;-57
2022/08/18 01:39:49;;;;;;;19.00;14.73;;;;;;;20.85;100.00;99514.72;1716818;83;21034;-66
2022/08/18 01:42:16;;;;;;;20.70;14.73;;;;;;;20.83;100.00;99514.72;1716671;83;21517;-56
2022/08/18 01:44:46;;;;;;;19.60;15.00;;;;;;;20.81;100.00;99510.23;1716354;83;21027;-64
2022/08/18 01:47:14;;;;;;;18.07;14.00;;;;;;;20.79;100.00;99513.67;1716638;83;21200;-58
2022/08/18 01:49:41;;;;;;;15.43;13.83;;;;;;;20.77;100.00;99508.65;1716803;83;21332;-57
2022/08/18 01:52:10;;;;;;;16.23;14.53;;;;;;;20.76;100.00;99515.52;1716869;83;20927;-56
2022/08/18 01:54:39;;;;;;;16.97;14.60;;;;;;;20.75;100.00;99513.94;1717027;83;21027;-57
2022/08/18 01:57:08;;;;;;;20.40;16.10;;;;;;;20.74;100.00;99517.66;1716346;83;20972;-57
2022/08/18 01:59:37;;;;;;;18.40;16.17;;;;;;;20.73;100.00;99512.90;1716894;83;20965;-56
2022/08/18 02:02:05;;;;;;;19.50;15.67;;;;;;;20.73;100.00;99519.52;1716214;83;21157;-56
2022/08/18 02:04:33;;;;;;;17.37;15.33;;;;;;;20.72;100.00;99525.89;1717228;83;22006;-56
2022/08/18 02:07:01;;;;;;;22.03;16.30;;;;;;;20.73;100.00;99526.14;1717592;83;21002;-58
2022/08/18 02:09:29;;;;;;;20.87;15.53;;;;;;;20.75;100.00;99526.65;1718001;83;21049;-57
2022/08/18 02:11:56;;;;;;;18.57;16.70;;;;;;;20.76;100.00;99530.09;1717830;83;21014;-64
2022/08/18 02:14:24;;;;;;;19.77;16.53;;;;;;;20.76;100.00;99530.09;1718410;82;21257;-56
2022/08/18 02:16:52;;;;;;;18.20;15.50;;;;;;;20.78;100.00;99534.06;1717738;83;21031;-65
2022/08/18 02:19:19;;;;;;;19.23;16.00;;;;;;;20.79;100.00;99527.70;1717938;83;21041;-57
2022/08/18 02:21:46;;;;;;;18.30;16.20;;;;;;;20.82;100.00;99533.80;1717958;83;21532;-57
2022/08/18 02:24:13;;;;;;;18.93;16.47;;;;;;;20.83;100.00;99523.98;1718388;83;20998;-57
2022/08/18 02:26:42;;;;;;;18.33;16.43;;;;;;;20.83;100.00;99528.75;1717927;83;21382;-56
2022/08/18 02:29:09;;;;;;;19.03;17.10;;;;;;;20.88;100.00;99531.94;1717633;83;21035;-58
2022/08/18 02:31:36;;;;;;;18.60;15.50;;;;;;;20.92;100.00;99532.20;1717977;83;21346;-60
2022/08/18 02:34:04;;;;;;;18.73;14.63;;;;;;;20.95;100.00;99531.13;1718060;83;21200;-56
2022/08/18 02:36:33;;;;;;;20.07;16.97;;;;;;;21.03;100.00;99530.58;1718080;83;21088;-57
2022/08/18 02:39:00;;;;;;;20.30;16.40;;;;;;;21.06;100.00;99535.34;1718088;83;21201;-58
2022/08/18 02:41:27;;;;;;;20.73;16.60;;;;;;;21.06;100.00;99526.07;1717996;83;20884;-58
2022/08/18 02:43:55;;;;;;;17.77;14.83;;;;;;;21.10;100.00;99529.77;1717629;83;21536;-57
2022/08/18 02:46:22;;;;;;;18.60;15.73;;;;;;;21.13;100.00;99521.78;1718083;83;21013;-56
2022/08/18 02:48:51;;;;;;;19.17;15.73;;;;;;;21.16;100.00;99521.79;1718272;83;21390;-56
2022/08/18 02:51:18;;;;;;;16.97;15.20;;;;;;;21.20;100.00;99515.67;1717472;83;21199;-65
2022/08/18 02:53:46;;;;;;;19.33;16.33;;;;;;;21.28;100.00;99517.75;1717936;83;21248;-60
2022/08/18 02:56:28;;;;;;;16.53;14.93;;;;;;;21.41;100.00;99519.61;1717610;83;21073;-56
2022/08/18 02:58:58;;;;;;;21.57;16.23;;;;;;;21.43;100.00;99518.25;1718560;83;20899;-56
2022/08/18 03:01:28;;;;;;;18.17;14.83;;;;;;;21.48;100.00;99528.85;1717969;83;21371;-56
2022/08/18 03:03:55;;;;;;;17.43;15.63;;;;;;;21.53;100.00;99532.80;1717360;82;21297;-58
2022/08/18 03:06:22;;;;;;;22.10;16.80;;;;;;;21.62;100.00;99535.13;1718368;83;22018;-56
2022/08/18 03:08:50;;;;;;;18.23;16.43;;;;;;;21.73;100.00;99543.03;1717949;82;21401;-66
2022/08/18 03:11:20;;;;;;;18.03;16.10;;;;;;;21.83;100.00;99530.51;1718003;83;21449;-58
2022/08/18 03:13:47;;;;;;;21.63;16.87;;;;;;;21.92;100.00;99537.88;1717889;83;21042;-67
2022/08/18 03:16:14;;;;;;;19.87;17.50;;;;;;;21.93;100.00;99538.92;1717828;83;21763;-58
2022/08/18 03:18:43;;;;;;;17.73;15.93;;;;;;;21.96;100.00;99539.70;1717851;83;20883;-67
2022/08/18 03:21:14;;;;;;;17.10;15.40;;;;;;;22.00;100.00;99539.41;1717932;83;20937;-56
2022/08/18 03:23:43;;;;;;;18.87;15.93;;;;;;;22.10;100.00;99541.21;1717767;82;20943;-61
2022/08/18 03:26:12;;;;;;;15.60;14.00;;;;;;;22.22;100.00;99542.22;1717859;82;21054;-57
2022/08/18 03:28:40;;;;;;;16.43;14.70;;;;;;;22.30;100.00;99540.29;1717457;83;21973;-60
2022/08/18 03:31:08;;;;;;;17.00;15.20;;;;;;;22.43;100.00;99535.68;1718035;83;20974;-57
2022/08/18 03:33:35;;;;;;;16.93;15.07;;;;;;;22.63;100.00;99536.56;1718263;83;21583;-58
2022/08/18 03:36:11;;;;;;;18.60;15.27;;;;;;;22.96;100.00;99532.28;1717548;83;20943;-64
2022/08/18 03:38:42;;;;;;;18.60;15.73;;;;;;;23.38;100.00;99534.18;1717912;83;21054;-62
2022/08/18 03:41:10;;;;;;;16.70;13.62;;;;;;;24.24;100.00;99527.38;1718234;83;21255;-57
2022/08/18 03:43:37;;;;;;;18.00;15.67;;;;;;;25.24;100.00;99519.77;1718263;83;21002;-57
2022/08/18 03:46:08;;;;;;;16.47;14.80;;;;;;;26.22;100.00;99517.86;1717816;83;21531;-64
2022/08/18 03:48:39;;;;;;;16.70;15.00;;;;;;;27.16;100.00;99506.06;1717510;83;20966;-58
2022/08/18 03:51:09;;;;;;;16.37;14.63;;;;;;;28.18;100.00;99513.41;1718282;83;21620;-59
2022/08/18 03:53:37;;;;;;;16.67;14.53;;;;;;;29.16;100.00;99510.33;1717952;83;21139;-58
2022/08/18 03:56:15;;;;;;;16.75;14.33;;;;;;;29.90;100.00;99512.90;1717372;83;20975;-58
2022/08/18 03:58:44;;;;;;;16.82;15.13;;;;;;;30.55;100.00;99516.67;1717474;83;21074;-57
2022/08/18 04:01:14;;;;;;;17.17;15.38;;;;;;;31.14;100.00;99513.57;1718271;83;21093;-57
2022/08/18 04:03:42;;;;;;;18.48;16.55;;;;;;;31.67;100.00;99511.67;1717959;83;21101;-62
2022/08/18 04:06:18;;;;;;;16.95;15.30;;;;;;;32.35;100.00;99512.70;1717505;82;21724;-57
2022/08/18 04:08:45;;;;;;;15.43;13.93;;;;;;;33.00;88.39;99509.12;1717594;83;20891;-58
2022/08/18 04:11:13;;;;;;;14.07;12.68;;;;;;;33.56;79.11;99511.48;1717892;83;21136;-57
2022/08/18 04:13:40;;;;;;;14.53;12.33;;;;;;;33.99;73.73;99511.00;1717243;83;20963;-66
2022/08/18 04:16:07;;;;;;;12.90;11.60;;;;;;;34.38;67.07;99512.25;1718163;83;22092;-58
2022/08/18 04:18:35;;;;;;;14.30;12.40;;;;;;;34.61;63.30;99513.63;1717408;83;21257;-62
2022/08/18 04:21:06;;;;;;;13.25;11.88;;;;;;;34.90;61.42;99516.20;1717937;83;21314;-55
2022/08/18 04:23:36;;;;;;;13.85;12.35;;;;;;;35.21;58.50;99510.27;1717967;83;21001;-63
2022/08/18 04:26:03;;;;;;;14.28;12.78;;;;;;;35.38;57.12;99516.47;1718418;83;20983;-55
2022/08/18 04:28:30;;;;;;;14.83;12.03;;;;;;;35.75;55.06;99520.63;1717940;83;21022;-56
2022/08/18 04:30:58;;;;;;;13.80;12.37;;;;;;;36.03;53.24;99518.06;1718290;83;22004;-55
2022/08/18 04:33:26;;;;;;;13.48;12.18;;;;;;;36.26;50.94;99523.31;1718181;82;20982;-64
2022/08/18 04:35:54;;;;;;;12.93;11.63;;;;;;;36.29;50.19;99518.47;1717751;83;21873;-56
2022/08/18 04:38:22;;;;;;;16.25;11.73;;;;;;;36.44;50.32;99509.88;1718567;82;21056;-55
2022/08/18 04:40:50;;;;;;;12.90;11.60;;;;;;;36.74;48.97;99516.53;1717829;83;20975;-55
2022/08/18 04:43:17;;;;;;;12.65;11.40;;;;;;;36.94;48.10;99512.45;1718238;83;21249;-55
2022/08/18 04:45:44;;;;;;;14.38;12.88;;;;;;;37.14;47.15;99516.23;1717843;83;21558;-60
2022/08/18 04:48:11;;;;;;;13.20;11.80;;;;;;;37.40;46.41;99513.84;1718228;82;21422;-54
2022/08/18 04:50:39;;;;;;;13.53;11.63;;;;;;;37.59;45.28;99515.50;1718000;83;20916;-58
2022/08/18 04:55:54;;;;;;;12.55;11.25;;;;;;;37.90;43.84;99514.82;1718522;83;21892;-55
2022/08/18 04:58:22;;;;;;;14.07;12.68;;;;;;;38.13;42.94;99520.49;1718018;83;21489;-64
2022/08/18 05:00:57;;;;;;;12.13;10.82;;;;;;;38.30;42.91;99526.55;1718134;83;21516;-55
2022/08/18 05:03:25;;;;;;;13.75;12.05;;;;;;;38.60;41.94;99524.80;1717847;82;21030;-55
2022/08/18 05:05:57;;;;;;;11.93;10.65;;;;;;;38.78;41.19;99530.23;1717472;82;20994;-55
2022/08/18 05:08:24;;;;;;;13.65;12.25;;;;;;;38.87;40.47;99528.48;1716518;83;21914;-58
2022/08/18 05:10:58;;;;;;;12.35;11.15;;;;;;;38.94;40.52;99527.89;1716665;83;21085;-65
2022/08/18 05:13:27;;;;;;;13.65;12.25;;;;;;;39.15;40.16;99536.61;1717237;83;20946;-56
2022/08/18 05:15:56;;;;;;;15.72;11.30;;;;;;;39.40;40.04;99537.13;1716848;83;21054;-56
2022/08/18 05:18:24;;;;;;;11.83;10.70;;;;;;;39.58;39.12;99536.46;1716759;83;21022;-57
2022/08/18 05:20:51;;;;;;;11.53;10.35;;;;;;;39.76;38.87;99541.86;1716836;83;21153;-64
2022/08/18 05:23:19;;;;;;;19.07;11.18;;;;;;;39.99;38.12;99537.84;1716908;83;21388;-56
2022/08/18 05:25:46;;;;;;;12.47;11.18;;;;;;;40.13;37.73;99544.01;1717043;83;21508;-58
2022/08/18 05:28:14;;;;;;;12.82;10.88;;;;;;;40.27;36.83;99551.33;1716760;83;21033;-61
2022/08/18 05:30:41;;;;;;;11.57;10.10;;;;;;;40.39;36.49;99544.61;1716650;83;21378;-65
2022/08/18 05:33:10;;;;;;;14.30;10.72;;;;;;;40.61;36.21;99546.58;1717128;83;21260;-56
2022/08/18 05:35:46;;;;;;;12.07;10.78;;;;;;;40.78;35.57;99536.08;1717315;83;21110;-56
2022/08/18 05:38:56;;;;;;;13.55;12.18;;;;;;;41.03;35.28;99533.69;1717390;83;21507;-59
2022/08/18 05:41:36;;;;;;;11.50;10.38;;;;;;;41.20;35.00;99525.12;1717494;83;21026;-56
2022/08/18 05:44:04;;;;;;;12.05;10.88;;;;;;;41.52;34.67;99526.10;1687649;83;26843;-57
2022/08/18 05:46:53;;;;;;;12.28;11.00;;;;;;;41.81;33.75;99527.86;1717191;83;21442;-56
2022/08/18 05:49:20;;;;;;;10.82;9.83;;;;;;;41.91;33.48;99522.09;1716521;83;20999;-56
2022/08/18 05:51:51;;;;;;;11.55;10.45;;;;;;;41.99;33.15;99527.04;1716498;83;20974;-58
2022/08/18 05:57:09;;;;;;;11.05;10.05;;;;;;;41.72;32.27;99527.02;1716831;83;20986;-57
2022/08/18 05:59:40;;;;;;;12.63;9.70;;;;;;;41.61;33.11;99531.86;1715502;83;21114;-62
2022/08/18 06:02:19;;;;;;;17.70;10.98;;;;;;;41.61;33.11;99531.86;1716944;83;21085;-56
2022/08/18 06:04:55;;;;;;;11.57;10.13;;;;;;;41.51;33.09;99523.97;1715156;83;21484;-57
2022/08/18 06:07:43;;;;;;;13.55;10.72;;;;;;;41.43;33.29;99523.11;1717128;83;21015;-65
2022/08/18 06:10:10;;;;;;;11.63;10.35;;;;;;;41.32;33.20;99525.95;1717746;83;21557;-56
2022/08/18 06:12:48;;;;;;;11.85;10.65;;;;;;;41.13;33.89;99527.94;1718137;83;22657;-56
2022/08/18 06:15:41;;;;;;;12.47;9.98;;;;;;;41.13;33.92;99522.47;1717581;83;20965;-58
2022/08/18 06:18:32;;;;;;;13.60;10.28;;;;;;;41.17;34.01;99520.46;1717869;82;21462;-56
2022/08/18 06:21:16;;;;;;;11.93;10.00;;;;;;;41.37;33.51;99511.03;1718130;82;21046;-56
2022/08/18 06:24:08;;;;;;;11.25;9.75;;;;;;;41.40;33.16;99513.72;1718059;83;21510;-56
2022/08/18 06:27:09;;;;;;;10.63;9.63;;;;;;;41.42;33.02;99511.99;1718294;83;21149;-56
2022/08/18 06:30:16;;;;;;;11.40;10.15;;;;;;;41.36;33.12;99511.63;1717865;83;22023;-56
2022/08/18 06:33:21;;;;;;;11.22;10.13;;;;;;;41.12;33.69;99514.86;1717516;83;21034;-57
2022/08/18 06:35:54;;;;;;;11.40;10.30;;;;;;;41.05;33.94;99507.51;1717566;83;21011;-56
2022/08/18 06:38:45;;;;;;;11.18;9.98;;;;;;;41.23;34.10;99506.53;1717530;83;21888;-56
2022/08/18 06:41:22;;;;;;;11.33;10.15;;;;;;;41.27;34.02;99499.83;1716763;83;21220;-57
2022/08/18 06:44:09;;;;;;;11.18;10.13;;;;;;;41.39;34.07;99501.23;1717573;83;21002;-55
2022/08/18 06:46:53;;;;;;;9.83;8.85;;;;;;;41.55;33.56;99500.06;1718136;83;21571;-60
2022/08/18 06:49:58;;;;;;;9.73;8.70;;;;;;;41.52;33.39;99491.91;1717757;83;20968;-56
2022/08/18 06:52:37;;;;;;;9.93;8.93;;;;;;;41.58;33.43;99491.64;1718020;83;21065;-56
2022/08/18 06:55:14;;;;;;;10.88;8.43;;;;;;;41.59;33.23;99495.91;1717884;83;21894;-56
2022/08/18 06:57:57;;;;;;;9.63;7.83;;;;;;;41.65;32.98;99492.14;1717575;83;21417;-56
2022/08/18 07:00:28;;;;;;;10.13;8.05;;;;;;;41.73;32.97;99497.09;1717804;83;21015;-56
2022/08/18 07:03:09;;;;;;;10.82;8.08;;;;;;;42.00;32.23;99490.84;1718004;83;20995;-55
2022/08/18 07:05:37;;;;;;;9.65;7.30;;;;;;;42.14;31.16;99489.86;1717620;83;21629;-63
2022/08/18 07:08:22;;;;;;;8.48;7.60;;;;;;;42.31;30.72;99492.91;1718622;83;22112;-56
2022/08/18 07:10:50;;;;;;;11.00;6.92;;;;;;;42.51;30.09;99492.38;1711348;83;20979;-61
2022/08/18 07:13:27;;;;;;;8.77;7.23;;;;;;;42.55;29.75;99491.55;1718162;83;21109;-64
2022/08/18 07:15:56;;;;;;;8.10;7.28;;;;;;;42.70;29.37;99490.12;1718198;82;21501;-55
2022/08/18 07:18:26;;;;;;;8.18;7.12;;;;;;;42.86;29.21;99487.45;1718398;83;21058;-55
2022/08/18 07:20:57;;;;;;;9.80;7.17;;;;;;;42.95;29.42;99489.62;1717903;83;21894;-56
2022/08/18 07:23:37;;;;;;;7.62;6.62;;;;;;;43.11;29.09;99485.59;1717768;82;21461;-56
2022/08/18 07:26:12;;;;;;;9.38;7.28;;;;;;;43.29;28.69;99490.70;1718243;82;21081;-56
2022/08/18 07:28:49;;;;;;;8.28;7.28;;;;;;;43.44;28.37;99486.45;1717396;83;21816;-58
2022/08/18 07:31:39;;;;;;;9.00;6.75;;;;;;;43.40;28.64;99491.86;1693616;83;21438;-56
2022/08/18 07:34:13;;;;;;;8.68;6.47;;;;;;;43.48;27.76;99491.30;1717771;83;21418;-57
2022/08/18 07:36:53;;;;;;;10.25;6.60;;;;;;;43.47;27.03;99491.13;1718305;83;20903;-56
2022/08/18 07:39:29;;;;;;;8.15;7.00;;;;;;;43.38;26.99;99495.61;1686103;83;21042;-63
2022/08/18 07:42:32;;;;;;;10.23;7.55;;;;;;;43.23;27.59;99490.45;1717627;83;21050;-58
2022/08/18 07:45:24;;;;;;;8.08;6.55;;;;;;;43.16;28.06;99494.70;1717947;83;20979;-57
2022/08/18 07:48:17;;;;;;;7.87;6.20;;;;;;;43.34;27.16;99494.92;1718322;83;21167;-57
2022/08/18 07:51:06;;;;;;;8.83;6.65;;;;;;;43.53;26.81;99488.67;1717339;83;22053;-63
2022/08/18 07:54:04;;;;;;;7.40;6.60;;;;;;;43.83;26.43;99485.42;1718603;83;20955;-57
2022/08/18 07:56:41;;;;;;;8.10;7.30;;;;;;;43.98;26.48;99492.14;1717506;83;21057;-55
2022/08/18 07:59:40;;;;;;;7.85;6.97;;;;;;;44.00;27.28;99495.84;1717907;83;21109;-55
2022/08/18 08:02:22;;;;;;;8.85;7.95;;;;;;;44.01;26.89;99496.78;1718025;82;21233;-57
2022/08/18 08:05:07;;;;;;;8.05;7.15;;;;;;;44.09;26.51;99492.66;1717817;83;20883;-56
2022/08/18 08:07:52;;;;;;;8.30;7.28;;;;;;;43.84;27.03;99494.62;1717749;82;21090;-56
2022/08/18 08:10:41;;;;;;;8.13;7.40;;;;;;;43.85;26.87;99492.03;1718196;83;20891;-56
2022/08/18 08:13:40;;;;;;;9.13;6.50;;;;;;;43.95;27.16;99493.80;1718386;83;21062;-56
2022/08/18 08:16:32;;;;;;;8.20;5.65;;;;;;;44.13;26.39;99491.96;1717243;83;21160;-58
2022/08/18 08:19:23;;;;;;;7.08;6.35;;;;;;;44.36;25.75;99486.89;1718074;83;20883;-55
2022/08/18 08:22:19;;;;;;;7.45;6.50;;;;;;;44.62;26.07;99480.91;1717321;83;21085;-55
2022/08/18 08:25:00;;;;;;;8.70;7.90;;;;;;;44.89;25.49;99481.95;1712180;83;21444;-65
2022/08/18 08:27:49;;;;;;;9.10;6.95;;;;;;;45.03;25.73;99478.03;1717785;83;21125;-56
2022/08/18 08:30:19;;;;;;;7.83;6.62;;;;;;;44.81;26.23;99479.85;1717453;83;22105;-62
2022/08/18 08:33:12;;;;;;;8.13;6.97;;;;;;;44.48;26.00;99473.65;1718079;83;21306;-64
2022/08/18 08:35:53;;;;;;;8.10;7.03;;;;;;;44.09;25.97;99477.55;1717975;83;20959;-56
2022/08/18 08:38:43;;;;;;;6.87;6.17;;;;;;;43.81;26.18;99472.12;1717609;83;21100;-58
2022/08/18 08:41:53;;;;;;;8.40;6.60;;;;;;;43.57;26.60;99466.03;1718425;83;20883;-54
2022/08/18 08:44:34;;;;;;;9.40;5.40;;;;;;;43.67;26.32;99466.37;1718072;83;21161;-54
2022/08/18 08:47:08;;;;;;;6.78;5.92;;;;;;;43.74;26.50;99463.30;1717321;83;20935;-55
2022/08/18 08:49:39;;;;;;;7.42;6.12;;;;;;;43.95;26.40;99469.08;1717661;83;21586;-54
2022/08/18 08:52:12;;;;;;;8.03;6.08;;;;;;;43.91;26.39;99469.77;1718422;83;21465;-54
2022/08/18 08:54:48;;;;;;;7.30;6.05;;;;;;;43.56;26.26;99468.58;1717629;83;21478;-57
2022/08/18 08:57:15;;;;;;;8.08;5.72;;;;;;;42.87;26.59;99463.55;1717838;83;21817;-55
2022/08/18 08:59:46;;;;;;;7.37;5.42;;;;;;;42.18;27.36;99459.08;1718176;83;20974;-54
2022/08/18 09:03:02;;;;;;;5.87;5.10;;;;;;;41.70;27.80;99462.93;1718558;83;20954;-55
2022/08/18 09:05:51;;;;;;;6.37;5.35;;;;;;;41.50;27.67;99458.13;1717976;83;20958;-54
2022/08/18 09:08:29;;;;;;;7.85;5.67;;;;;;;41.51;28.11;99461.64;1718587;82;21041;-55
2022/08/18 09:11:05;;;;;;;14.60;6.17;;;;;;;41.32;27.95;99463.81;1718263;83;21516;-56
2022/08/18 09:14:09;;;;;;;7.47;4.95;;;;;;;40.98;27.83;99467.15;1717633;83;21111;-57
2022/08/18 09:17:07;;;;;;;11.40;6.67;;;;;;;40.83;28.61;99453.64;1718312;83;20991;-54
2022/08/18 09:20:01;;;;;;;8.45;5.30;;;;;;;40.99;28.93;99453.12;1718509;83;21078;-54
2022/08/18 09:22:45;;;;;;;6.53;5.37;;;;;;;41.20;27.54;99452.66;1717601;83;21100;-57
2022/08/18 09:25:35;;;;;;;6.40;5.12;;;;;;;40.96;27.21;99463.47;1718301;83;21295;-58
2022/08/18 09:28:31;;;;;;;7.07;5.83;;;;;;;40.49;28.38;99464.51;1717430;83;22234;-58
2022/08/18 09:31:09;;;;;;;8.53;6.83;;;;;;;40.12;29.33;99468.76;1718605;82;21027;-57
2022/08/18 09:33:46;;;;;;;8.68;6.80;;;;;;;39.59;30.53;99468.48;1718545;83;21016;-56
2022/08/18 09:36:29;;;;;;;8.38;6.45;;;;;;;39.30;31.40;99473.30;1717851;83;21467;-56
2022/08/18 09:42:04;;;;;;;8.50;7.47;;;;;;;38.70;32.18;99474.98;1704170;83;21026;-56
2022/08/18 09:44:49;;;;;;;7.65;6.85;;;;;;;38.35;32.55;99466.28;1718052;83;20939;-56
2022/08/18 09:47:30;;;;;;;11.45;6.72;;;;;;;38.08;33.03;99470.55;1718771;83;21539;-56
2022/08/18 09:50:04;;;;;;;6.80;6.20;;;;;;;37.77;33.29;99468.70;1717798;83;21097;-64
2022/08/18 09:52:40;;;;;;;6.90;6.17;;;;;;;37.56;32.93;99465.95;1695470;83;21342;-56
2022/08/18 09:55:24;;;;;;;9.48;6.85;;;;;;;37.34;32.93;99467.20;1718901;83;20978;-55
2022/08/18 09:58:27;;;;;;;10.50;6.90;;;;;;;37.14;33.88;99470.05;1718139;82;21501;-57
2022/08/18 10:01:31;;;;;;;7.78;6.47;;;;;;;36.84;34.95;99468.30;1718590;83;21034;-64
2022/08/18 10:04:19;;;;;;;9.58;7.78;;;;;;;36.73;36.32;99466.09;1689126;83;20887;-55
2022/08/18 10:06:48;;;;;;;9.30;7.40;;;;;;;37.22;37.08;99460.17;1664321;83;21657;-55
2022/08/18 10:10:17;;;;;;;11.05;7.33;;;;;;;37.63;35.61;99461.89;1686769;83;20963;-56
2022/08/18 10:13:19;;;;;;;7.85;6.55;;;;;;;37.84;35.93;99452.39;1702016;84;21469;-57
2022/08/18 10:16:18;;;;;;;11.35;6.40;;;;;;;38.10;35.05;99458.08;1708538;83;21061;-56
2022/08/18 10:19:23;;;;;;;9.03;7.28;;;;;;;38.24;35.23;99449.16;1705232;83;21462;-65
2022/08/18 10:22:11;;;;;;;7.37;6.30;;;;;;;38.69;34.96;99446.79;1704468;84;22196;-61
2022/08/18 10:24:55;;;;;;;7.95;6.40;;;;;;;39.09;33.68;99449.59;1706182;83;20932;-58
2022/08/18 10:27:55;;;;;;;7.42;6.50;;;;;;;39.39;33.46;99449.09;1682651;84;20943;-56
2022/08/18 10:30:45;;;;;;;7.70;5.83;;;;;;;39.95;31.80;99441.56;1702375;84;21014;-56
2022/08/18 10:33:12;;;;;;;6.28;5.30;;;;;;;40.40;30.54;99441.00;1705455;83;20948;-56
2022/08/18 10:35:55;;;;;;;7.95;6.05;;;;;;;40.59;29.73;99443.17;1660612;84;21264;-56
2022/08/18 10:38:40;;;;;;;9.93;6.37;;;;;;;40.37;29.95;99437.12;1706202;84;21102;-56
2022/08/18 10:41:14;;;;;;;9.08;7.10;;;;;;;40.06;30.42;99431.34;1706562;84;21058;-57
2022/08/18 10:43:47;;;;;;;7.25;6.47;;;;;;;39.96;31.26;99431.59;1706113;83;20932;-58
2022/08/18 10:46:23;;;;;;;8.38;6.20;;;;;;;39.94;31.41;99434.56;1706225;84;21020;-60
2022/08/18 10:49:24;;;;;;;7.80;5.53;;;;;;;39.82;30.75;99422.95;1706095;83;22340;-57
2022/08/18 10:52:21;;;;;;;7.20;5.50;;;;;;;39.48;29.65;99423.36;1705720;83;20924;-60
2022/08/18 10:55:13;;;;;;;6.33;5.60;;;;;;;38.74;29.93;99427.31;1705876;84;21035;-56
2022/08/18 10:58:22;;;;;;;6.30;5.42;;;;;;;38.41;31.10;99422.51;1706602;84;21898;-56
2022/08/18 11:01:00;;;;;;;7.37;6.33;;;;;;;38.59;31.08;99422.48;1705816;83;21122;-57
2022/08/18 11:03:58;;;;;;;8.58;6.15;;;;;;;39.16;31.28;99420.94;1706112;83;21242;-57
2022/08/18 11:06:25;;;;;;;7.15;6.30;;;;;;;39.48;31.07;99417.91;1705430;84;21113;-57
2022/08/18 11:08:57;;;;;;;7.70;5.50;;;;;;;39.79;30.66;99414.79;1705900;84;21050;-57
2022/08/18 11:11:32;;;;;;;10.60;9.50;;;;;;;39.97;30.97;99409.17;1706480;83;21075;-57
2022/08/18 11:14:56;;;;;;;7.65;6.65;;;;;;;40.14;29.80;99406.91;1706186;83;20936;-65
2022/08/18 11:18:02;;;;;;;8.13;6.33;;;;;;;40.25;29.54;99407.59;1705208;82;21173;-58
2022/08/18 11:20:30;;;;;;;6.45;5.80;;;;;;;40.33;28.99;99401.47;1706062;83;20928;-61
2022/08/18 11:23:00;;;;;;;8.73;6.33;;;;;;;40.28;29.10;99406.02;1705459;83;21034;-59
2022/08/18 11:25:34;;;;;;;6.70;6.10;;;;;;;39.83;29.67;99406.76;1707259;83;21064;-56
2022/08/18 11:28:01;;;;;;;7.85;6.05;;;;;;;39.61;30.59;99409.42;1706149;83;21521;-56
2022/08/18 11:30:33;;;;;;;8.55;6.83;;;;;;;39.65;30.47;99410.17;1705882;83;21252;-61
2022/08/18 11:33:00;;;;;;;6.72;6.03;;;;;;;39.93;29.96;99400.23;1705154;83;20958;-58
2022/08/18 11:35:34;;;;;;;8.18;5.40;;;;;;;40.35;29.92;99400.48;1705932;83;21827;-56
2022/08/18 11:38:10;;;;;;;7.30;6.55;;;;;;;40.55;29.27;99400.09;1705949;83;21054;-58
2022/08/18 11:40:44;;;;;;;7.55;6.17;;;;;;;40.74;28.51;99394.62;1705899;84;21276;-65
2022/08/18 11:43:33;;;;;;;7.90;5.92;;;;;;;40.76;28.06;99389.50;1705791;84;21402;-57
2022/08/18 11:46:10;;;;;;;7.58;5.70;;;;;;;40.63;28.48;99388.50;1705568;83;20990;-56
2022/08/18 11:48:44;;;;;;;6.92;6.12;;;;;;;40.70;28.63;99380.82;1705907;83;20983;-57
2022/08/18 11:51:20;;;;;;;8.83;6.40;;;;;;;40.80;29.22;99383.43;1705450;84;21046;-58
2022/08/18 11:53:58;;;;;;;6.70;5.80;;;;;;;40.85;29.06;99380.23;1705825;83;21481;-56
2022/08/18 11:56:34;;;;;;;6.83;5.25;;;;;;;40.96;29.10;99373.86;1706034;84;22286;-56
2022/08/18 11:59:28;;;;;;;7.05;5.75;;;;;;;41.17;28.30;99371.44;1705193;84;20980;-57
2022/08/18 12:01:57;;;;;;;6.97;5.53;;;;;;;41.26;28.23;99377.96;1698985;84;20963;-57
2022/08/18 12:04:41;;;;;;;6.40;5.53;;;;;;;41.27;28.25;99378.13;1705723;84;21508;-63
2022/08/18 12:07:14;;;;;;;7.87;5.42;;;;;;;41.31;28.63;99378.08;1705958;84;21019;-65
2022/08/18 12:10:02;;;;;;;6.55;5.80;;;;;;;41.47;28.20;99374.75;1706136;84;21395;-56
2022/08/18 12:12:31;;;;;;;7.17;6.10;;;;;;;41.53;27.60;99368.40;1705245;83;21896;-56
2022/08/18 12:15:06;;;;;;;7.67;5.78;;;;;;;41.54;27.40;99371.30;1705188;83;21086;-57
2022/08/18 12:17:34;;;;;;;8.10;6.10;;;;;;;41.46;27.67;99373.98;1703288;84;21825;-58
2022/08/18 12:20:01;;;;;;;8.63;6.22;;;;;;;41.41;27.40;99364.08;1705149;83;21088;-56
2022/08/18 12:22:33;;;;;;;6.95;6.12;;;;;;;41.07;28.46;99358.13;1705795;84;21297;-56